sensor_id;sensor_type;location;lat;lon;timestamp;pressure;altitude;pressure_sealevel;temperature;humidity
60371;BME280;48550;40.588;49.684;2024-02-23T00:01:40;102684.00;;;5.89;83.92
60371;BME280;48550;40.588;49.684;2024-02-23T00:04:06;102685.09;;;5.80;83.95
60371;BME280;48550;40.588;49.684;2024-02-23T00:06:34;102679.47;;;5.96;86.05
60371;BME280;48550;40.588;49.684;2024-02-23T00:09:00;102686.22;;;6.06;86.18
60371;BME280;48550;40.588;49.684;2024-02-23T00:11:26;102684.31;;;6.11;85.15
60371;BME280;48550;40.588;49.684;2024-02-23T00:13:53;102692.00;;;6.19;84.42
60371;BME280;48550;40.588;49.684;2024-02-23T00:16:19;102691.28;;;6.12;84.16
60371;BME280;48550;40.588;49.684;2024-02-23T00:18:45;102687.13;;;6.05;84.29
60371;BME280;48550;40.588;49.684;2024-02-23T00:21:10;102679.41;;;5.99;83.73
60371;BME280;48550;40.588;49.684;2024-02-23T00:23:36;102678.59;;;5.97;83.67
60371;BME280;48550;40.588;49.684;2024-02-23T00:26:02;102681.91;;;6.04;84.62
60371;BME280;48550;40.588;49.684;2024-02-23T00:28:28;102694.97;;;6.05;83.83
60371;BME280;48550;40.588;49.684;2024-02-23T00:30:54;102690.66;;;6.03;84.14
60371;BME280;48550;40.588;49.684;2024-02-23T00:33:19;102694.72;;;6.14;85.57
60371;BME280;48550;40.588;49.684;2024-02-23T00:35:45;102692.16;;;6.13;84.68
60371;BME280;48550;40.588;49.684;2024-02-23T00:38:11;102689.50;;;6.14;84.55
60371;BME280;48550;40.588;49.684;2024-02-23T00:40:38;102692.72;;;6.24;84.91
60371;BME280;48550;40.588;49.684;2024-02-23T00:43:04;102703.31;;;6.20;83.89
60371;BME280;48550;40.588;49.684;2024-02-23T00:45:31;102699.84;;;6.19;82.76
60371;BME280;48550;40.588;49.684;2024-02-23T00:47:56;102703.50;;;6.13;83.44
60371;BME280;48550;40.588;49.684;2024-02-23T00:50:23;102701.25;;;6.31;85.21
60371;BME280;48550;40.588;49.684;2024-02-23T00:52:53;102696.34;;;6.50;85.15
60371;BME280;48550;40.588;49.684;2024-02-23T00:55:19;102698.81;;;6.56;84.04
60371;BME280;48550;40.588;49.684;2024-02-23T00:57:45;102706.69;;;6.56;81.66
60371;BME280;48550;40.588;49.684;2024-02-23T01:00:11;102702.16;;;6.61;83.33
60371;BME280;48550;40.588;49.684;2024-02-23T01:02:38;102706.84;;;6.50;82.34
60371;BME280;48550;40.588;49.684;2024-02-23T01:05:04;102702.06;;;6.33;82.50
60371;BME280;48550;40.588;49.684;2024-02-23T01:07:30;102697.31;;;6.16;82.61
60371;BME280;48550;40.588;49.684;2024-02-23T01:09:56;102690.72;;;6.01;82.96
60371;BME280;48550;40.588;49.684;2024-02-23T01:12:24;102697.66;;;6.35;84.62
60371;BME280;48550;40.588;49.684;2024-02-23T01:14:50;102692.19;;;6.43;82.59
60371;BME280;48550;40.588;49.684;2024-02-23T01:17:15;102685.09;;;6.46;82.31
60371;BME280;48550;40.588;49.684;2024-02-23T01:19:42;102693.00;;;6.45;80.37
60371;BME280;48550;40.588;49.684;2024-02-23T01:22:08;102685.22;;;6.42;80.51
60371;BME280;48550;40.588;49.684;2024-02-23T01:24:34;102708.03;;;6.40;81.55
60371;BME280;48550;40.588;49.684;2024-02-23T01:27:00;102718.19;;;6.50;83.55
60371;BME280;48550;40.588;49.684;2024-02-23T01:29:26;102716.66;;;6.43;81.68
60371;BME280;48550;40.588;49.684;2024-02-23T01:31:52;102709.59;;;6.45;81.82
60371;BME280;48550;40.588;49.684;2024-02-23T01:34:20;102709.59;;;6.45;80.46
60371;BME280;48550;40.588;49.684;2024-02-23T01:36:46;102697.41;;;6.44;80.80
60371;BME280;48550;40.588;49.684;2024-02-23T01:39:12;102716.66;;;6.43;80.58
60371;BME280;48550;40.588;49.684;2024-02-23T01:41:38;102706.84;;;6.50;82.22
60371;BME280;48550;40.588;49.684;2024-02-23T01:44:04;102705.53;;;6.65;82.26
60371;BME280;48550;40.588;49.684;2024-02-23T01:46:30;102695.94;;;6.64;80.13
60371;BME280;48550;40.588;49.684;2024-02-23T01:48:57;102692.88;;;6.49;79.58
60371;BME280;48550;40.588;49.684;2024-02-23T01:51:24;102691.00;;;6.53;80.32
60371;BME280;48550;40.588;49.684;2024-02-23T01:53:50;102695.88;;;6.35;80.24
60371;BME280;48550;40.588;49.684;2024-02-23T01:56:16;102709.91;;;6.34;80.85
60371;BME280;48550;40.588;49.684;2024-02-23T01:58:46;102696.09;;;6.28;81.70
60371;BME280;48550;40.588;49.684;2024-02-23T02:01:12;102705.53;;;6.35;82.66
60371;BME280;48550;40.588;49.684;2024-02-23T02:03:38;102691.28;;;6.44;81.54
60371;BME280;48550;40.588;49.684;2024-02-23T02:06:09;102701.69;;;6.47;80.77
60371;BME280;48550;40.588;49.684;2024-02-23T02:08:35;102703.69;;;6.39;80.59
60371;BME280;48550;40.588;49.684;2024-02-23T02:11:01;102701.50;;;6.22;80.57
60371;BME280;48550;40.588;49.684;2024-02-23T02:13:30;102700.59;;;6.24;82.49
60371;BME280;48550;40.588;49.684;2024-02-23T02:16:01;102713.31;;;6.38;82.44
60371;BME280;48550;40.588;49.684;2024-02-23T02:18:27;102698.34;;;6.42;82.23
60371;BME280;48550;40.588;49.684;2024-02-23T02:20:55;102700.66;;;6.52;82.38
60371;BME280;48550;40.588;49.684;2024-02-23T02:23:22;102704.19;;;6.51;81.47
60371;BME280;48550;40.588;49.684;2024-02-23T02:25:57;102698.88;;;6.53;81.06
60371;BME280;48550;40.588;49.684;2024-02-23T02:28:24;102705.66;;;6.30;80.13
60371;BME280;48550;40.588;49.684;2024-02-23T02:30:51;102706.06;;;5.80;80.25
60371;BME280;48550;40.588;49.684;2024-02-23T02:33:18;102709.25;;;5.59;80.84
60371;BME280;48550;40.588;49.684;2024-02-23T02:35:44;102716.97;;;5.65;81.98
60371;BME280;48550;40.588;49.684;2024-02-23T02:38:12;102717.03;;;5.62;80.74
60371;BME280;48550;40.588;49.684;2024-02-23T02:40:38;102724.25;;;5.54;81.22
60371;BME280;48550;40.588;49.684;2024-02-23T02:43:05;102729.81;;;5.76;81.73
60371;BME280;48550;40.588;49.684;2024-02-23T02:45:31;102734.72;;;5.88;81.31
60371;BME280;48550;40.588;49.684;2024-02-23T02:47:59;102725.66;;;5.67;81.30
60371;BME280;48550;40.588;49.684;2024-02-23T02:50:25;102730.00;;;5.68;80.05
60371;BME280;48550;40.588;49.684;2024-02-23T02:52:51;102735.63;;;5.51;78.70
60371;BME280;48550;40.588;49.684;2024-02-23T02:55:16;102730.25;;;5.20;79.86
60371;BME280;48550;40.588;49.684;2024-02-23T02:57:44;102733.41;;;4.97;80.49
60371;BME280;48550;40.588;49.684;2024-02-23T03:00:10;102732.34;;;4.65;80.77
60371;BME280;48550;40.588;49.684;2024-02-23T03:02:37;102729.13;;;4.52;80.53
60371;BME280;48550;40.588;49.684;2024-02-23T03:05:03;102735.34;;;4.45;81.54
60371;BME280;48550;40.588;49.684;2024-02-23T03:07:29;102722.19;;;4.49;82.44
60371;BME280;48550;40.588;49.684;2024-02-23T03:09:54;102724.09;;;4.41;80.63
60371;BME280;48550;40.588;49.684;2024-02-23T03:12:20;102722.28;;;4.43;80.53
60371;BME280;48550;40.588;49.684;2024-02-23T03:14:46;102725.94;;;4.36;81.54
60371;BME280;48550;40.588;49.684;2024-02-23T03:17:12;102721.97;;;4.60;81.72
60371;BME280;48550;40.588;49.684;2024-02-23T03:19:38;102723.91;;;4.50;80.21
60371;BME280;48550;40.588;49.684;2024-02-23T03:22:04;102724.81;;;4.48;81.69
60371;BME280;48550;40.588;49.684;2024-02-23T03:24:30;102722.44;;;4.35;80.66
60371;BME280;48550;40.588;49.684;2024-02-23T03:26:56;102726.75;;;4.38;81.14
60371;BME280;48550;40.588;49.684;2024-02-23T03:29:22;102716.28;;;4.80;83.74
60371;BME280;48550;40.588;49.684;2024-02-23T03:31:55;102721.78;;;4.69;80.11
60371;BME280;48550;40.588;49.684;2024-02-23T03:34:21;102724.56;;;4.62;80.44
60371;BME280;48550;40.588;49.684;2024-02-23T03:36:47;102716.88;;;4.52;80.40
60371;BME280;48550;40.588;49.684;2024-02-23T03:39:13;102714.97;;;4.61;81.58
60371;BME280;48550;40.588;49.684;2024-02-23T03:41:39;102719.59;;;4.48;81.11
60371;BME280;48550;40.588;49.684;2024-02-23T03:44:04;102722.13;;;4.52;81.54
60371;BME280;48550;40.588;49.684;2024-02-23T03:46:30;102724.09;;;4.41;80.57
60371;BME280;48550;40.588;49.684;2024-02-23T03:48:56;102719.00;;;4.33;80.48
60371;BME280;48550;40.588;49.684;2024-02-23T03:51:23;102719.91;;;4.31;81.30
60371;BME280;48550;40.588;49.684;2024-02-23T03:53:49;102709.06;;;4.51;80.90
60371;BME280;48550;40.588;49.684;2024-02-23T03:56:15;102724.88;;;4.45;81.49
60371;BME280;48550;40.588;49.684;2024-02-23T03:58:41;102732.69;;;4.46;80.76
60371;BME280;48550;40.588;49.684;2024-02-23T04:01:07;102722.28;;;4.45;80.87
60371;BME280;48550;40.588;49.684;2024-02-23T04:03:33;102741.50;;;4.42;80.84
60371;BME280;48550;40.588;49.684;2024-02-23T04:05:58;102734.25;;;4.57;82.07
60371;BME280;48550;40.588;49.684;2024-02-23T04:08:24;102748.06;;;4.63;81.75
60371;BME280;48550;40.588;49.684;2024-02-23T04:10:50;102743.09;;;4.49;80.43
60371;BME280;48550;40.588;49.684;2024-02-23T04:13:16;102744.09;;;4.42;80.76
60371;BME280;48550;40.588;49.684;2024-02-23T04:15:43;102752.84;;;4.43;81.15
60371;BME280;48550;40.588;49.684;2024-02-23T04:18:09;102749.31;;;4.44;80.92
60371;BME280;48550;40.588;49.684;2024-02-23T04:20:35;102753.63;;;4.46;81.26
60371;BME280;48550;40.588;49.684;2024-02-23T04:23:01;102754.38;;;4.53;82.13
60371;BME280;48550;40.588;49.684;2024-02-23T04:25:27;102748.22;;;4.56;80.86
60371;BME280;48550;40.588;49.684;2024-02-23T04:27:52;102756.09;;;4.54;79.87
60371;BME280;48550;40.588;49.684;2024-02-23T04:30:18;102755.66;;;4.76;79.59
60371;BME280;48550;40.588;49.684;2024-02-23T04:32:44;102758.41;;;4.69;80.38
60371;BME280;48550;40.588;49.684;2024-02-23T04:35:10;102766.38;;;4.63;80.94
60371;BME280;48550;40.588;49.684;2024-02-23T04:37:35;102770.53;;;4.73;80.05
60371;BME280;48550;40.588;49.684;2024-02-23T04:40:01;102768.03;;;4.67;79.50
60371;BME280;48550;40.588;49.684;2024-02-23T04:42:27;102765.66;;;4.57;80.40
60371;BME280;48550;40.588;49.684;2024-02-23T04:44:53;102763.81;;;4.60;80.48
60371;BME280;48550;40.588;49.684;2024-02-23T04:47:20;102755.03;;;4.63;79.92
60371;BME280;48550;40.588;49.684;2024-02-23T04:49:46;102754.25;;;4.59;81.17
60371;BME280;48550;40.588;49.684;2024-02-23T04:52:12;102766.44;;;4.60;80.64
60371;BME280;48550;40.588;49.684;2024-02-23T04:54:38;102774.44;;;4.52;79.76
60371;BME280;48550;40.588;49.684;2024-02-23T04:57:03;102780.47;;;4.56;79.42
60371;BME280;48550;40.588;49.684;2024-02-23T04:59:29;102786.56;;;4.58;80.40
60371;BME280;48550;40.588;49.684;2024-02-23T05:01:57;102790.84;;;4.61;80.58
60371;BME280;48550;40.588;49.684;2024-02-23T05:04:23;102811.69;;;4.65;79.41
60371;BME280;48550;40.588;49.684;2024-02-23T05:06:49;102797.84;;;4.60;79.75
60371;BME280;48550;40.588;49.684;2024-02-23T05:09:15;102803.03;;;4.62;80.16
60371;BME280;48550;40.588;49.684;2024-02-23T05:11:40;102800.94;;;4.81;80.90
60371;BME280;48550;40.588;49.684;2024-02-23T05:14:06;102802.91;;;4.69;79.99
60371;BME280;48550;40.588;49.684;2024-02-23T05:16:32;102813.53;;;4.60;79.97
60371;BME280;48550;40.588;49.684;2024-02-23T05:18:57;102818.59;;;4.69;79.84
60371;BME280;48550;40.588;49.684;2024-02-23T05:21:23;102826.22;;;4.80;80.38
60371;BME280;48550;40.588;49.684;2024-02-23T05:23:51;102833.31;;;4.75;79.87
60371;BME280;48550;40.588;49.684;2024-02-23T05:26:17;102825.47;;;4.73;80.50
60371;BME280;48550;40.588;49.684;2024-02-23T05:28:43;102822.16;;;4.65;80.11
60371;BME280;48550;40.588;49.684;2024-02-23T05:31:09;102825.38;;;4.80;80.94
60371;BME280;48550;40.588;49.684;2024-02-23T05:33:35;102828.81;;;4.82;80.12
60371;BME280;48550;40.588;49.684;2024-02-23T05:36:01;102843.69;;;4.80;79.60
60371;BME280;48550;40.588;49.684;2024-02-23T05:38:27;102842.81;;;4.81;81.13
60371;BME280;48550;40.588;49.684;2024-02-23T05:40:52;102833.47;;;4.66;80.76
60371;BME280;48550;40.588;49.684;2024-02-23T05:43:18;102837.78;;;4.68;80.99
60371;BME280;48550;40.588;49.684;2024-02-23T05:45:44;102841.94;;;4.79;80.43
60371;BME280;48550;40.588;49.684;2024-02-23T05:48:12;102846.78;;;5.00;80.55
60371;BME280;48550;40.588;49.684;2024-02-23T05:50:38;102837.25;;;4.96;79.76
60371;BME280;48550;40.588;49.684;2024-02-23T05:53:03;102825.25;;;4.86;80.80
60371;BME280;48550;40.588;49.684;2024-02-23T05:55:30;102839.75;;;5.02;80.64
60371;BME280;48550;40.588;49.684;2024-02-23T05:57:56;102835.63;;;4.90;80.19
60371;BME280;48550;40.588;49.684;2024-02-23T06:00:22;102836.91;;;5.13;79.44
60371;BME280;48550;40.588;49.684;2024-02-23T06:02:47;102828.44;;;5.00;79.11
60371;BME280;48550;40.588;49.684;2024-02-23T06:05:13;102824.16;;;4.96;79.35
60371;BME280;48550;40.588;49.684;2024-02-23T06:07:41;102829.34;;;4.98;79.89
60371;BME280;48550;40.588;49.684;2024-02-23T06:10:07;102826.94;;;4.88;79.99
60371;BME280;48550;40.588;49.684;2024-02-23T06:12:33;102837.59;;;4.79;80.16
60371;BME280;48550;40.588;49.684;2024-02-23T06:14:58;102844.56;;;4.79;80.26
60371;BME280;48550;40.588;49.684;2024-02-23T06:17:24;102841.13;;;4.77;81.06
60371;BME280;48550;40.588;49.684;2024-02-23T06:19:50;102841.88;;;4.83;80.35
60371;BME280;48550;40.588;49.684;2024-02-23T06:22:18;102842.03;;;5.18;81.51
60371;BME280;48550;40.588;49.684;2024-02-23T06:24:47;102839.41;;;5.19;80.86
60371;BME280;48550;40.588;49.684;2024-02-23T06:27:12;102838.13;;;5.37;80.36
60371;BME280;48550;40.588;49.684;2024-02-23T06:29:38;102838.13;;;5.37;78.81
60371;BME280;48550;40.588;49.684;2024-02-23T06:32:04;102848.13;;;5.18;79.49
60371;BME280;48550;40.588;49.684;2024-02-23T06:34:30;102838.41;;;5.25;79.84
60371;BME280;48550;40.588;49.684;2024-02-23T06:36:56;102849.00;;;5.20;79.33
60371;BME280;48550;40.588;49.684;2024-02-23T06:39:22;102858.59;;;5.20;79.47
60371;BME280;48550;40.588;49.684;2024-02-23T06:41:48;102852.53;;;5.18;79.90
60371;BME280;48550;40.588;49.684;2024-02-23T06:44:13;102855.13;;;5.18;79.28
60371;BME280;48550;40.588;49.684;2024-02-23T06:46:39;102862.84;;;5.25;79.81
60371;BME280;48550;40.588;49.684;2024-02-23T06:49:05;102855.66;;;5.35;79.72
60371;BME280;48550;40.588;49.684;2024-02-23T06:51:31;102848.41;;;5.47;78.75
60371;BME280;48550;40.588;49.684;2024-02-23T06:53:57;102853.59;;;5.50;78.74
60371;BME280;48550;40.588;49.684;2024-02-23T06:56:23;102858.69;;;5.56;78.12
60371;BME280;48550;40.588;49.684;2024-02-23T06:58:49;102853.81;;;5.78;77.08
60371;BME280;48550;40.588;49.684;2024-02-23T07:01:14;102866.28;;;5.68;77.82
60371;BME280;48550;40.588;49.684;2024-02-23T07:03:40;102866.81;;;5.82;77.88
60371;BME280;48550;40.588;49.684;2024-02-23T07:06:10;102873.28;;;5.66;77.44
60371;BME280;48550;40.588;49.684;2024-02-23T07:08:36;102869.50;;;5.79;78.53
60371;BME280;48550;40.588;49.684;2024-02-23T07:11:02;102876.97;;;5.98;77.32
60371;BME280;48550;40.588;49.684;2024-02-23T07:13:28;102881.78;;;6.51;83.33
60371;BME280;48550;40.588;49.684;2024-02-23T07:15:55;102869.72;;;6.09;78.28
60371;BME280;48550;40.588;49.684;2024-02-23T07:18:21;102881.06;;;6.10;78.23
60371;BME280;48550;40.588;49.684;2024-02-23T07:20:47;102886.31;;;6.10;77.15
60371;BME280;48550;40.588;49.684;2024-02-23T07:23:13;102890.09;;;5.95;77.73
60371;BME280;48550;40.588;49.684;2024-02-23T07:25:41;102895.16;;;6.04;76.14
60371;BME280;48550;40.588;49.684;2024-02-23T07:28:07;102891.16;;;5.88;76.64
60371;BME280;48550;40.588;49.684;2024-02-23T07:30:33;102884.56;;;5.71;77.20
60371;BME280;48550;40.588;49.684;2024-02-23T07:33:00;102888.69;;;5.81;77.80
60371;BME280;48550;40.588;49.684;2024-02-23T07:35:26;102877.63;;;5.69;77.29
60371;BME280;48550;40.588;49.684;2024-02-23T07:37:53;102886.59;;;5.58;77.81
60371;BME280;48550;40.588;49.684;2024-02-23T07:40:20;102884.56;;;5.31;79.00
60371;BME280;48550;40.588;49.684;2024-02-23T07:42:46;102890.47;;;4.97;81.15
60371;BME280;48550;40.588;49.684;2024-02-23T07:45:11;102878.97;;;5.04;81.95
60371;BME280;48550;40.588;49.684;2024-02-23T07:47:37;102871.63;;;5.23;80.60
60371;BME280;48550;40.588;49.684;2024-02-23T07:50:03;102866.44;;;5.20;80.70
60371;BME280;48550;40.588;49.684;2024-02-23T07:52:29;102855.22;;;5.13;81.83
60371;BME280;48550;40.588;49.684;2024-02-23T07:54:54;102868.47;;;5.05;81.83
60371;BME280;48550;40.588;49.684;2024-02-23T07:57:20;102867.13;;;4.86;82.99
60371;BME280;48550;40.588;49.684;2024-02-23T07:59:47;102867.28;;;4.77;84.29
60371;BME280;48550;40.588;49.684;2024-02-23T08:02:14;102859.53;;;4.72;85.32
60371;BME280;48550;40.588;49.684;2024-02-23T08:04:40;102844.88;;;4.63;85.82
60371;BME280;48550;40.588;49.684;2024-02-23T08:07:06;102848.84;;;4.83;85.32
60371;BME280;48550;40.588;49.684;2024-02-23T08:09:31;102852.34;;;4.83;85.56
60371;BME280;48550;40.588;49.684;2024-02-23T08:11:57;102853.25;;;4.82;86.08
60371;BME280;48550;40.588;49.684;2024-02-23T08:14:23;102852.38;;;4.80;86.02
60371;BME280;48550;40.588;49.684;2024-02-23T08:16:49;102862.13;;;4.73;86.77
60371;BME280;48550;40.588;49.684;2024-02-23T08:19:15;102859.88;;;4.55;87.02
60371;BME280;48550;40.588;49.684;2024-02-23T08:21:41;102858.97;;;4.54;87.59
60371;BME280;48550;40.588;49.684;2024-02-23T08:24:07;102853.03;;;4.46;88.01
60371;BME280;48550;40.588;49.684;2024-02-23T08:26:33;102855.88;;;4.32;88.78
60371;BME280;48550;40.588;49.684;2024-02-23T08:28:59;102849.66;;;4.40;88.31
60371;BME280;48550;40.588;49.684;2024-02-23T08:31:25;102857.59;;;4.35;88.36
60371;BME280;48550;40.588;49.684;2024-02-23T08:33:50;102857.59;;;4.35;88.27
60371;BME280;48550;40.588;49.684;2024-02-23T08:36:16;102853.31;;;4.29;88.75
60371;BME280;48550;40.588;49.684;2024-02-23T08:38:42;102852.28;;;4.40;88.62
60371;BME280;48550;40.588;49.684;2024-02-23T08:41:08;102855.00;;;4.33;88.96
60371;BME280;48550;40.588;49.684;2024-02-23T08:43:34;102849.56;;;4.46;89.21
60371;BME280;48550;40.588;49.684;2024-02-23T08:45:59;102855.72;;;4.42;88.93
60371;BME280;48550;40.588;49.684;2024-02-23T08:48:25;102839.34;;;4.30;89.16
60371;BME280;48550;40.588;49.684;2024-02-23T08:50:51;102840.06;;;4.39;89.08
60371;BME280;48550;40.588;49.684;2024-02-23T08:53:17;102848.16;;;4.25;89.81
60371;BME280;48550;40.588;49.684;2024-02-23T08:55:43;102828.91;;;4.30;89.41
60371;BME280;48550;40.588;49.684;2024-02-23T08:58:08;102833.97;;;4.40;89.44
60371;BME280;48550;40.588;49.684;2024-02-23T09:00:35;102837.91;;;4.62;89.59
60371;BME280;48550;40.588;49.684;2024-02-23T09:03:02;102838.66;;;4.69;89.30
60371;BME280;48550;40.588;49.684;2024-02-23T09:05:28;102826.25;;;4.79;89.29
60371;BME280;48550;40.588;49.684;2024-02-23T09:07:54;102818.28;;;4.85;88.58
60371;BME280;48550;40.588;49.684;2024-02-23T09:10:20;102819.72;;;5.01;88.31
60371;BME280;48550;40.588;49.684;2024-02-23T09:12:46;102818.03;;;4.97;87.69
60371;BME280;48550;40.588;49.684;2024-02-23T09:15:12;102818.69;;;5.07;87.77
60371;BME280;48550;40.588;49.684;2024-02-23T09:17:40;102813.56;;;5.02;86.82
60371;BME280;48550;40.588;49.684;2024-02-23T09:20:07;102811.91;;;4.98;86.37
60371;BME280;48550;40.588;49.684;2024-02-23T09:22:33;102809.91;;;4.67;87.76
60371;BME280;48550;40.588;49.684;2024-02-23T09:24:59;102820.50;;;4.60;87.80
60371;BME280;48550;40.588;49.684;2024-02-23T09:27:25;102811.94;;;4.51;88.55
60371;BME280;48550;40.588;49.684;2024-02-23T09:29:50;102812.06;;;4.45;88.36
60371;BME280;48550;40.588;49.684;2024-02-23T09:32:17;102820.78;;;4.46;87.96
60371;BME280;48550;40.588;49.684;2024-02-23T09:34:43;102814.72;;;4.42;87.79
60371;BME280;48550;40.588;49.684;2024-02-23T09:37:08;102806.94;;;4.41;88.26
60371;BME280;48550;40.588;49.684;2024-02-23T09:39:35;102811.56;;;4.25;88.60
60371;BME280;48550;40.588;49.684;2024-02-23T09:42:01;102803.75;;;4.23;88.37
60371;BME280;48550;40.588;49.684;2024-02-23T09:44:34;102799.28;;;4.30;88.37
60371;BME280;48550;40.588;49.684;2024-02-23T09:47:01;102797.69;;;4.21;88.01
60371;BME280;48550;40.588;49.684;2024-02-23T09:49:39;102796.84;;;4.19;88.88
60371;BME280;48550;40.588;49.684;2024-02-23T09:52:09;102797.75;;;4.16;88.46
60371;BME280;48550;40.588;49.684;2024-02-23T09:54:36;102795.16;;;4.15;88.97
60371;BME280;48550;40.588;49.684;2024-02-23T09:57:08;102788.22;;;4.14;89.53
60371;BME280;48550;40.588;49.684;2024-02-23T09:59:35;102787.22;;;4.21;89.05
60371;BME280;48550;40.588;49.684;2024-02-23T10:02:03;102803.88;;;4.17;88.86
60371;BME280;48550;40.588;49.684;2024-02-23T10:04:33;102784.72;;;4.13;89.20
60371;BME280;48550;40.588;49.684;2024-02-23T10:06:59;102790.94;;;4.09;89.38
60371;BME280;48550;40.588;49.684;2024-02-23T10:09:25;102789.13;;;4.11;88.25
60371;BME280;48550;40.588;49.684;2024-02-23T10:11:54;102785.69;;;4.09;88.75
60371;BME280;48550;40.588;49.684;2024-02-23T10:14:20;102797.88;;;4.09;89.51
60371;BME280;48550;40.588;49.684;2024-02-23T10:16:47;102795.00;;;4.24;88.58
60371;BME280;48550;40.588;49.684;2024-02-23T10:19:12;102794.34;;;4.13;88.36
60371;BME280;48550;40.588;49.684;2024-02-23T10:21:38;102803.94;;;4.12;88.48
60371;BME280;48550;40.588;49.684;2024-02-23T10:24:05;102814.56;;;4.02;89.12
60371;BME280;48550;40.588;49.684;2024-02-23T10:26:31;102804.88;;;4.08;90.10
60371;BME280;48550;40.588;49.684;2024-02-23T10:28:57;102802.44;;;3.97;90.27
60371;BME280;48550;40.588;49.684;2024-02-23T10:31:24;102808.16;;;4.20;90.42
60371;BME280;48550;40.588;49.684;2024-02-23T10:33:50;102821.00;;;4.33;90.03
60371;BME280;48550;40.588;49.684;2024-02-23T10:36:18;102818.47;;;4.29;89.95
60371;BME280;48550;40.588;49.684;2024-02-23T10:38:48;102818.50;;;4.27;90.16
60371;BME280;48550;40.588;49.684;2024-02-23T10:41:17;102815.03;;;4.27;90.10
60371;BME280;48550;40.588;49.684;2024-02-23T10:43:47;102815.00;;;4.28;89.75
60371;BME280;48550;40.588;49.684;2024-02-23T10:46:14;102809.09;;;4.17;89.81
60371;BME280;48550;40.588;49.684;2024-02-23T10:48:44;102810.91;;;4.12;90.22
60371;BME280;48550;40.588;49.684;2024-02-23T10:51:12;102810.78;;;4.20;90.35
60371;BME280;48550;40.588;49.684;2024-02-23T10:53:44;102825.53;;;4.24;89.79
60371;BME280;48550;40.588;49.684;2024-02-23T10:56:11;102826.50;;;4.18;89.86
60371;BME280;48550;40.588;49.684;2024-02-23T10:58:37;102824.88;;;4.11;89.72
60371;BME280;48550;40.588;49.684;2024-02-23T11:01:06;102838.19;;;3.95;89.70
60371;BME280;48550;40.588;49.684;2024-02-23T11:03:35;102840.75;;;3.98;90.16
60371;BME280;48550;40.588;49.684;2024-02-23T11:06:02;102843.44;;;3.94;90.56
60371;BME280;48550;40.588;49.684;2024-02-23T11:08:29;102845.31;;;3.86;90.71
60371;BME280;48550;40.588;49.684;2024-02-23T11:10:55;102847.88;;;3.90;90.68
60371;BME280;48550;40.588;49.684;2024-02-23T11:13:50;102850.38;;;3.96;90.68
60371;BME280;48550;40.588;49.684;2024-02-23T11:16:22;102848.78;;;3.88;90.82
60371;BME280;48550;40.588;49.684;2024-02-23T11:19:03;102869.66;;;3.89;90.85
60371;BME280;48550;40.588;49.684;2024-02-23T11:21:35;102866.06;;;3.98;90.73
60371;BME280;48550;40.588;49.684;2024-02-23T11:24:03;102867.84;;;3.93;90.49
60371;BME280;48550;40.588;49.684;2024-02-23T11:26:29;102870.59;;;3.85;90.80
60371;BME280;48550;40.588;49.684;2024-02-23T11:28:55;102874.91;;;3.88;91.19
60371;BME280;48550;40.588;49.684;2024-02-23T11:31:23;102880.03;;;3.94;91.17
60371;BME280;48550;40.588;49.684;2024-02-23T11:33:50;102882.72;;;3.89;91.20
60371;BME280;48550;40.588;49.684;2024-02-23T11:36:42;102886.25;;;3.87;91.09
60371;BME280;48550;40.588;49.684;2024-02-23T11:39:09;102883.81;;;3.76;91.36
60371;BME280;48550;40.588;49.684;2024-02-23T11:41:38;102883.88;;;3.71;91.54
60371;BME280;48550;40.588;49.684;2024-02-23T11:44:05;102887.44;;;3.64;91.52
60371;BME280;48550;40.588;49.684;2024-02-23T11:46:32;102895.34;;;3.59;91.75
60371;BME280;48550;40.588;49.684;2024-02-23T11:48:58;102903.28;;;3.52;92.00
60371;BME280;48550;40.588;49.684;2024-02-23T11:51:25;102912.91;;;3.47;92.06
60371;BME280;48550;40.588;49.684;2024-02-23T11:53:55;102908.66;;;3.41;92.30
60371;BME280;48550;40.588;49.684;2024-02-23T11:56:23;102930.47;;;3.35;92.28
60371;BME280;48550;40.588;49.684;2024-02-23T11:58:49;102924.50;;;3.24;92.34
60371;BME280;48550;40.588;49.684;2024-02-23T12:01:15;102928.03;;;3.21;92.38
60371;BME280;48550;40.588;49.684;2024-02-23T12:03:41;102942.84;;;3.19;92.57
60371;BME280;48550;40.588;49.684;2024-02-23T12:06:09;102940.34;;;3.08;92.72
60371;BME280;48550;40.588;49.684;2024-02-23T12:08:36;102946.47;;;3.06;92.93
60371;BME280;48550;40.588;49.684;2024-02-23T12:11:13;102952.47;;;3.13;93.02
60371;BME280;48550;40.588;49.684;2024-02-23T12:13:40;102949.91;;;3.08;93.05
60371;BME280;48550;40.588;49.684;2024-02-23T12:16:07;102961.19;;;3.10;92.92
60371;BME280;48550;40.588;49.684;2024-02-23T12:18:35;102970.03;;;3.00;93.03
60371;BME280;48550;40.588;49.684;2024-02-23T12:21:05;102972.72;;;2.90;92.95
60371;BME280;48550;40.588;49.684;2024-02-23T12:23:41;102972.75;;;2.86;93.06
60371;BME280;48550;40.588;49.684;2024-02-23T12:26:08;102981.44;;;2.88;92.85
60371;BME280;48550;40.588;49.684;2024-02-23T12:28:35;102981.50;;;2.82;92.84
60371;BME280;48550;40.588;49.684;2024-02-23T12:31:04;102993.63;;;2.87;92.94
60371;BME280;48550;40.588;49.684;2024-02-23T12:33:35;102989.34;;;2.82;93.04
60371;BME280;48550;40.588;49.684;2024-02-23T12:36:02;102987.56;;;2.85;93.02
60371;BME280;48550;40.588;49.684;2024-02-23T12:38:28;102990.16;;;2.85;93.09
60371;BME280;48550;40.588;49.684;2024-02-23T12:40:55;102987.53;;;2.87;93.07
60371;BME280;48550;40.588;49.684;2024-02-23T12:43:21;102989.22;;;2.89;93.07
60371;BME280;48550;40.588;49.684;2024-02-23T12:45:50;102990.97;;;2.92;93.06
60371;BME280;48550;40.588;49.684;2024-02-23T12:48:16;102998.81;;;2.90;93.19